Time;durP1;ratioP1;P1;durP2;ratioP2;P2;SDS_P1;SDS_P2;PMS_P1;PMS_P2;Temp;Humidity;BMP_temperature;BMP_pressure;BME280_temperature;BME280_humidity;BME280_pressure;Samples;Min_cycle;Max_cycle;Signal;HPM_P1;HPM_P2
2022/03/02 00:01:12;;;;;;;54.60;37.38;;;9.80;99.90;;;9.82;69.62;102516.06;5094840;28;20055;-65
2022/03/02 00:03:41;;;;;;;52.92;37.58;;;9.80;99.90;;;10.03;69.46;102537.75;5094427;28;20063;-66
2022/03/02 00:06:10;;;;;;;53.60;37.35;;;9.80;99.90;;;10.01;69.53;102539.47;5094443;28;20112;-66
2022/03/02 00:08:38;;;;;;;53.60;37.25;;;9.80;99.90;;;10.04;69.30;102543.94;5094360;28;20048;-66
2022/03/02 00:11:07;;;;;;;51.67;37.05;;;9.80;99.90;;;10.04;69.78;102542.16;5094243;28;20490;-65
2022/03/02 00:13:36;;;;;;;55.70;37.95;;;9.80;99.90;;;9.95;69.77;102544.59;5094290;28;20119;-66
2022/03/02 00:16:05;;;;;;;53.72;38.63;;;9.80;99.90;;;10.01;69.86;102547.38;5094176;28;20168;-67
2022/03/02 00:18:33;;;;;;;51.17;37.83;;;9.80;99.90;;;9.94;69.88;102536.63;5094511;28;20075;-66
2022/03/02 00:21:02;;;;;;;52.20;36.38;;;9.70;99.90;;;9.96;69.84;102546.41;5094362;28;20074;-67
2022/03/02 00:23:31;;;;;;;53.20;36.72;;;9.70;99.90;;;9.92;69.79;102546.28;5094374;28;20052;-65
2022/03/02 00:25:59;;;;;;;51.38;37.65;;;9.70;99.90;;;9.69;69.99;102507.81;5076219;28;20048;-65
2022/03/02 00:28:28;;;;;;;53.03;37.08;;;9.70;99.90;;;9.69;69.96;102521.91;5094573;28;20036;-65
2022/03/02 00:30:58;;;;;;;57.58;39.40;;;9.70;99.90;;;9.67;70.14;102523.63;5094154;28;20044;-65
2022/03/02 00:33:27;;;;;;;54.87;38.73;;;9.60;99.90;;;9.87;69.78;102545.28;5094080;28;20078;-66
2022/03/02 00:35:55;;;;;;;58.63;38.45;;;9.60;99.90;;;9.90;69.98;102543.59;5093846;28;20289;-66
2022/03/02 00:38:23;;;;;;;53.95;37.33;;;9.70;99.90;;;9.92;70.23;102539.25;5093797;28;20040;-66
2022/03/02 00:40:52;;;;;;;54.72;40.15;;;9.70;99.90;;;9.97;69.96;102542.88;5093782;28;20040;-68
2022/03/02 00:43:23;;;;;;;54.70;38.50;;;9.80;99.90;;;9.98;69.51;102572.88;5093729;28;20071;-67
2022/03/02 00:45:52;;;;;;;55.78;39.55;;;9.80;99.90;;;9.88;69.52;102537.38;5094024;28;20044;-70
2022/03/02 00:48:22;;;;;;;52.92;38.60;;;9.70;99.90;;;9.88;69.72;102541.75;5094161;28;20044;-67
2022/03/02 00:50:51;;;;;;;52.22;37.20;;;9.70;99.90;;;9.83;69.97;102538.13;5094006;28;20055;-67
2022/03/02 00:53:20;;;;;;;56.83;38.83;;;9.60;99.90;;;9.89;69.84;102540.91;5093867;28;20048;-65
2022/03/02 00:55:48;;;;;;;51.90;38.15;;;9.70;99.90;;;9.90;69.58;102538.31;5093790;28;20097;-65
2022/03/02 00:58:17;;;;;;;53.42;38.33;;;9.70;99.90;;;9.90;69.13;102534.75;5093847;28;20482;-67
2022/03/02 01:00:45;;;;;;;51.53;37.17;;;9.70;99.90;;;9.88;69.20;102534.72;5093463;28;20040;-65
2022/03/02 01:03:14;;;;;;;53.88;39.25;;;9.70;99.90;;;9.70;69.40;102499.91;5093376;28;20071;-66
2022/03/02 01:05:44;;;;;;;53.20;37.53;;;9.70;99.90;;;9.71;69.51;102525.50;5093424;28;20036;-67
2022/03/02 01:08:13;;;;;;;56.72;36.55;;;9.50;99.90;;;9.55;69.73;102522.38;5093563;28;20048;-67
2022/03/02 01:10:41;;;;;;;56.00;38.75;;;9.50;99.90;;;9.50;69.91;102522.28;5093229;28;20382;-66
2022/03/02 01:13:10;;;;;;;56.85;39.08;;;9.40;99.90;;;9.23;70.42;102518.91;5093570;28;20058;-66
2022/03/02 01:15:38;;;;;;;54.72;37.90;;;9.20;99.90;;;9.23;71.74;102513.63;5093245;28;20109;-66
2022/03/02 01:18:07;;;;;;;52.55;37.97;;;9.00;99.90;;;9.37;71.35;102504.31;5093195;28;20429;-66
2022/03/02 01:20:35;;;;;;;54.97;37.75;;;9.10;99.90;;;9.42;71.18;102499.16;5093122;28;20520;-66
2022/03/02 01:23:05;;;;;;;57.17;38.67;;;9.20;99.90;;;9.42;71.04;102508.00;5093482;28;20416;-66
2022/03/02 01:25:34;;;;;;;57.08;39.25;;;9.20;99.90;;;9.48;71.36;102502.88;5093400;28;20055;-66
2022/03/02 01:28:02;;;;;;;56.97;39.30;;;9.20;99.90;;;9.43;70.88;102488.63;5093324;28;20105;-66
2022/03/02 01:30:31;;;;;;;52.92;38.40;;;9.30;99.90;;;9.43;70.55;102471.88;5093076;28;20567;-66
2022/03/02 01:33:00;;;;;;;55.45;40.15;;;9.30;99.90;;;9.51;70.67;102502.03;5093254;28;20056;-67
2022/03/02 01:35:28;;;;;;;55.35;39.28;;;9.30;99.90;;;9.48;71.25;102492.31;5093264;28;20051;-67
2022/03/02 01:37:56;;;;;;;59.40;38.95;;;9.30;99.90;;;9.43;70.77;102493.91;5093051;28;20127;-67
2022/03/02 01:40:26;;;;;;;60.00;39.65;;;9.30;99.90;;;9.36;71.50;102489.34;5092976;28;20044;-66
2022/03/02 01:42:55;;;;;;;53.90;39.40;;;9.20;99.90;;;9.40;71.28;102478.00;5093049;28;20147;-67
2022/03/02 01:45:24;;;;;;;58.97;38.17;;;9.20;99.90;;;9.37;71.33;102483.19;5093238;28;20044;-66
2022/03/02 01:47:53;;;;;;;54.25;39.83;;;9.20;99.90;;;9.43;71.34;102475.44;5093167;28;20455;-67
2022/03/02 01:50:21;;;;;;;52.75;37.42;;;9.20;99.90;;;9.30;71.94;102469.78;5093195;28;20044;-66
2022/03/02 01:52:50;;;;;;;57.42;39.55;;;9.10;99.90;;;9.34;72.00;102472.56;5092802;28;20040;-67
2022/03/02 01:55:18;;;;;;;54.42;38.47;;;9.10;99.90;;;9.34;72.00;102469.91;5093202;28;20044;-67
2022/03/02 01:57:48;;;;;;;53.17;37.67;;;9.10;99.90;;;9.14;72.08;102472.88;5093089;28;20470;-66
2022/03/02 02:00:23;;;;;;;57.08;38.42;;;9.00;99.90;;;9.26;72.68;102471.47;5092875;28;20497;-66
2022/03/02 02:02:52;;;;;;;60.55;38.75;;;9.00;99.90;;;9.30;72.11;102465.41;5094301;28;20056;-66
2022/03/02 02:05:21;;;;;;;56.65;38.95;;;9.10;99.90;;;9.24;72.16;102457.31;5096814;28;20121;-67
2022/03/02 02:07:50;;;;;;;55.80;38.60;;;9.10;99.90;;;9.34;71.83;102469.00;5096695;28;20405;-67
2022/03/02 02:10:18;;;;;;;52.70;37.40;;;9.10;99.90;;;9.34;71.78;102467.28;5096657;28;20044;-67
2022/03/02 02:12:48;;;;;;;52.55;37.60;;;9.10;99.90;;;9.22;71.91;102456.38;5096485;28;20496;-67
2022/03/02 02:15:17;;;;;;;54.20;36.95;;;9.10;99.90;;;9.27;71.71;102462.66;5096640;28;20048;-67
2022/03/02 02:17:45;;;;;;;52.55;38.15;;;9.10;99.90;;;9.31;71.58;102463.66;5096795;28;20465;-68
2022/03/02 02:20:15;;;;;;;56.75;39.03;;;9.10;99.90;;;9.22;71.65;102444.91;5078514;28;20052;-67
2022/03/02 02:22:47;;;;;;;54.45;37.28;;;9.10;99.90;;;9.29;71.54;102458.31;5096422;28;20190;-68
2022/03/02 02:25:16;;;;;;;55.22;37.15;;;9.10;99.90;;;9.37;71.48;102461.19;5096726;28;20051;-67
2022/03/02 02:27:49;;;;;;;51.60;36.28;;;9.10;99.90;;;9.29;71.68;102455.69;5096576;28;20077;-68
2022/03/02 02:30:18;;;;;;;54.00;37.53;;;9.10;99.90;;;9.19;71.55;102469.50;5096632;28;20044;-68
2022/03/02 02:32:46;;;;;;;52.47;36.97;;;9.10;99.90;;;9.34;71.16;102446.16;5096498;28;20135;-68
2022/03/02 02:35:15;;;;;;;53.75;37.30;;;9.10;99.90;;;9.15;71.33;102417.50;5096505;28;20078;-69
2022/03/02 02:37:45;;;;;;;48.78;36.17;;;9.10;99.90;;;9.21;70.95;102420.28;5096150;28;20115;-68
2022/03/02 02:40:17;;;;;;;57.55;39.88;;;9.10;99.90;;;9.36;70.71;102436.53;5078312;28;20048;-67
2022/03/02 02:42:47;;;;;;;54.35;37.53;;;9.20;99.90;;;9.37;70.96;102435.66;5078188;28;20056;-67
2022/03/02 02:45:20;;;;;;;51.03;36.65;;;9.20;99.90;;;9.36;70.65;102433.88;5096392;28;20044;-67
2022/03/02 02:47:50;;;;;;;50.88;36.88;;;9.10;99.90;;;9.41;70.31;102436.63;5096031;28;20469;-68
2022/03/02 02:50:22;;;;;;;52.78;37.63;;;9.20;99.90;;;9.34;69.99;102445.25;5095906;28;20068;-71
2022/03/02 02:52:53;;;;;;;59.97;37.40;;;9.10;99.90;;;9.26;70.15;102431.84;5095843;28;20451;-68
2022/03/02 02:55:24;;;;;;;54.67;36.85;;;9.10;99.90;;;9.17;70.36;102404.31;5096132;28;20063;-68
2022/03/02 02:57:54;;;;;;;53.08;37.05;;;9.10;99.90;;;9.20;70.03;102407.03;5096099;28;20056;-68
2022/03/02 03:00:25;;;;;;;56.20;37.97;;;9.10;99.90;;;9.27;70.06;102423.06;5095681;28;20553;-68
2022/03/02 03:02:55;;;;;;;55.80;37.42;;;9.10;99.90;;;9.31;69.86;102418.78;5095572;28;20390;-68
2022/03/02 03:05:26;;;;;;;54.17;38.30;;;9.10;99.90;;;9.33;69.44;102422.34;5095943;28;20040;-68
2022/03/02 03:07:55;;;;;;;51.13;36.38;;;9.10;99.90;;;9.31;69.50;102419.66;5095822;28;20058;-68
2022/03/02 03:10:25;;;;;;;54.45;37.90;;;9.10;99.90;;;9.28;69.38;102414.31;5095553;28;20558;-67
2022/03/02 03:12:54;;;;;;;51.33;38.27;;;9.10;99.90;;;9.27;69.50;102415.13;5095596;28;20032;-67
2022/03/02 03:15:24;;;;;;;53.30;37.97;;;9.10;99.90;;;9.19;69.32;102374.47;5094477;28;20367;-68
2022/03/02 03:17:53;;;;;;;52.60;35.85;;;9.20;99.90;;;9.09;68.85;102386.56;5095734;28;20090;-68
2022/03/02 03:20:25;;;;;;;52.42;36.25;;;9.10;99.90;;;9.24;68.79;102390.41;5095361;28;20048;-68
2022/03/02 03:22:56;;;;;;;52.45;37.58;;;9.00;99.90;;;9.19;69.11;102398.25;5095666;28;20044;-68
2022/03/02 03:25:26;;;;;;;50.50;36.90;;;9.00;99.90;;;9.16;69.31;102405.16;5095392;28;20048;-68
2022/03/02 03:27:55;;;;;;;49.28;35.33;;;9.00;99.90;;;9.16;69.15;102398.13;5095454;28;20048;-67
2022/03/02 03:30:26;;;;;;;52.67;37.00;;;9.00;99.90;;;9.23;69.10;102389.53;5095097;28;20048;-68
2022/03/02 03:32:56;;;;;;;53.25;35.53;;;9.00;99.90;;;9.14;68.87;102405.13;5095116;28;20056;-68
2022/03/02 03:35:26;;;;;;;49.95;36.08;;;9.00;99.90;;;8.85;68.85;102337.50;5095348;28;20095;-68
2022/03/02 03:37:56;;;;;;;54.90;36.67;;;9.00;99.90;;;9.15;68.91;102413.94;5095344;28;20040;-67
2022/03/02 03:40:25;;;;;;;53.80;36.03;;;9.00;99.90;;;8.87;69.09;102385.91;5095153;28;20056;-68
2022/03/02 03:42:54;;;;;;;54.47;37.30;;;8.90;99.90;;;9.02;69.04;102412.72;5095168;28;20068;-69
2022/03/02 03:45:23;;;;;;;51.73;35.30;;;8.90;99.90;;;8.79;69.32;102353.16;5095128;28;20044;-68
2022/03/02 03:47:53;;;;;;;54.90;38.15;;;8.80;99.90;;;9.05;69.47;102383.78;5095010;28;20043;-68
2022/03/02 03:50:21;;;;;;;52.63;36.05;;;8.80;99.90;;;8.94;69.28;102349.19;5095004;28;20077;-68
2022/03/02 03:52:50;;;;;;;54.83;37.70;;;8.90;99.90;;;9.04;69.00;102379.34;5094599;28;20043;-68
2022/03/02 03:55:20;;;;;;;52.70;36.45;;;8.90;99.90;;;9.05;69.15;102384.69;5094928;28;20112;-70
2022/03/02 03:57:49;;;;;;;51.03;36.95;;;8.90;99.90;;;9.12;69.31;102390.13;5094753;28;20390;-70
2022/03/02 04:00:20;;;;;;;47.92;34.58;;;8.90;99.90;;;8.95;69.32;102381.75;5095139;28;20040;-68
2022/03/02 04:02:49;;;;;;;52.53;36.65;;;8.80;99.90;;;8.44;69.44;102298.59;5094642;28;20047;-68
2022/03/02 04:05:18;;;;;;;55.15;36.33;;;8.80;99.90;;;8.86;69.52;102382.41;5094539;28;20447;-68
2022/03/02 04:07:48;;;;;;;53.65;36.28;;;8.80;99.90;;;8.95;69.69;102377.38;5076644;28;20048;-68
2022/03/02 04:10:17;;;;;;;49.97;35.08;;;8.70;99.90;;;8.90;69.70;102357.00;5094594;28;20071;-68
2022/03/02 04:12:47;;;;;;;52.57;36.03;;;8.80;99.90;;;9.09;69.65;102385.66;5094517;28;20040;-68
2022/03/02 04:15:18;;;;;;;50.63;35.25;;;8.80;99.90;;;9.02;69.11;102368.75;5094325;28;20838;-68
2022/03/02 04:17:46;;;;;;;48.90;35.60;;;8.80;99.90;;;9.07;69.49;102376.78;5094352;28;20459;-68
2022/03/02 04:20:15;;;;;;;51.63;35.10;;;8.90;99.90;;;9.14;69.07;102362.88;5094306;28;20493;-68
2022/03/02 04:22:43;;;;;;;54.00;36.08;;;8.90;99.90;;;8.97;69.36;102361.56;5076189;28;20040;-68
2022/03/02 04:25:12;;;;;;;48.53;35.25;;;8.80;99.90;;;8.91;68.91;102353.50;5075839;28;20517;-69
2022/03/02 04:27:41;;;;;;;52.00;36.95;;;8.80;99.90;;;8.82;69.26;102332.16;5094278;28;20392;-68
2022/03/02 04:30:13;;;;;;;51.72;35.90;;;8.80;99.90;;;8.49;69.01;102354.97;5094023;28;20051;-68
2022/03/02 04:32:42;;;;;;;53.28;37.13;;;8.60;99.90;;;8.35;70.14;102354.59;5076288;28;20040;-68
2022/03/02 04:35:12;;;;;;;52.22;35.88;;;8.30;99.90;;;8.35;70.13;102333.50;5093848;28;20073;-68
2022/03/02 04:37:42;;;;;;;52.88;36.50;;;8.30;99.90;;;8.54;70.63;102345.44;5094508;28;20155;-68
2022/03/02 04:40:13;;;;;;;55.13;36.50;;;8.30;99.90;;;8.37;69.82;102323.00;5094114;28;20044;-68
2022/03/02 04:42:42;;;;;;;53.42;35.72;;;8.30;99.90;;;8.48;69.60;102340.03;5093854;28;20093;-68
2022/03/02 04:45:13;;;;;;;49.92;35.35;;;8.30;99.90;;;8.33;69.36;102310.56;5093732;28;20047;-68
2022/03/02 04:47:41;;;;;;;54.60;34.78;;;8.30;99.90;;;8.39;69.11;102342.38;5093693;28;20093;-68
2022/03/02 04:50:12;;;;;;;55.00;36.95;;;8.30;99.90;;;8.26;69.49;102333.25;5093885;28;20040;-68
2022/03/02 04:52:41;;;;;;;;;;;8.20;99.90;;;8.31;69.67;102336.91;5094014;28;20048;-68
2022/03/02 04:55:10;;;;;;;50.83;35.25;;;8.10;99.90;;;6.50;68.72;101977.97;5093817;28;19920;-68
2022/03/02 04:57:42;;;;;;;51.63;35.15;;;8.30;99.90;;;8.38;68.52;102325.66;5093478;28;20088;-68
2022/03/02 05:00:16;;;;;;;57.40;37.58;;;8.30;99.90;;;8.16;68.41;102334.69;5093869;28;20040;-68
2022/03/02 05:02:46;;;;;;;51.70;34.88;;;8.10;99.90;;;7.97;69.41;102332.38;5093262;28;20047;-68
2022/03/02 05:05:16;;;;;;;55.42;36.03;;;7.90;99.90;;;8.03;68.59;102329.03;5093438;28;20090;-67
2022/03/02 05:07:45;;;;;;;50.83;35.15;;;7.90;99.90;;;8.11;68.85;102330.13;5093728;28;20043;-65
2022/03/02 05:10:16;;;;;;;51.22;35.95;;;7.90;99.90;;;8.01;68.36;102314.91;5093658;28;20413;-70
2022/03/02 05:12:45;;;;;;;51.40;35.42;;;7.90;99.90;;;8.15;68.03;102321.44;5093412;28;20044;-68
2022/03/02 05:15:16;;;;;;;51.47;34.47;;;8.00;99.90;;;8.19;67.90;102324.22;5093245;28;20153;-67
2022/03/02 05:17:46;;;;;;;53.53;35.20;;;8.00;99.90;;;7.96;68.14;102324.41;5093540;28;20051;-66
2022/03/02 05:20:17;;;;;;;51.15;35.20;;;7.80;99.90;;;8.19;67.50;102329.50;5093266;28;20081;-66
2022/03/02 05:22:46;;;;;;;50.25;33.95;;;8.00;99.90;;;8.23;67.51;102326.97;5093209;28;20160;-69
2022/03/02 05:25:16;;;;;;;52.53;33.55;;;8.00;99.90;;;8.27;67.24;102335.03;5075259;28;20462;-68
2022/03/02 05:27:45;;;;;;;49.53;34.58;;;8.10;99.90;;;8.20;67.19;102312.84;5093353;28;20040;-68
2022/03/02 05:30:19;;;;;;;48.55;34.20;;;8.10;99.90;;;8.39;66.77;102329.19;5093564;28;20078;-68
2022/03/02 05:32:48;;;;;;;54.55;35.08;;;8.20;99.90;;;8.33;66.13;102313.22;5093383;28;20547;-70
2022/03/02 05:35:17;;;;;;;51.55;35.30;;;8.30;99.90;;;8.43;65.95;102323.16;5093650;28;20055;-68
2022/03/02 05:37:45;;;;;;;49.97;33.25;;;8.20;99.90;;;8.41;65.61;102322.22;5094077;28;20091;-68
2022/03/02 05:40:16;;;;;;;49.58;34.38;;;8.30;99.90;;;8.19;66.41;102324.22;5097427;28;20130;-70
2022/03/02 05:42:51;;;;;;;53.97;36.28;;;8.10;99.90;;;8.04;66.75;102315.91;5097430;28;20055;-68
2022/03/02 05:45:21;;;;;;;51.55;35.10;;;8.00;99.90;;;7.96;66.99;102312.13;5097553;28;20101;-68
2022/03/02 05:47:50;;;;;;;50.45;34.97;;;7.90;99.90;;;8.04;67.15;102320.25;5097188;28;20059;-68
2022/03/02 05:50:18;;;;;;;50.60;34.50;;;7.90;99.90;;;8.08;67.02;102311.59;5097484;28;20389;-70
2022/03/02 05:52:47;;;;;;;51.33;34.10;;;7.90;99.90;;;8.12;66.69;102317.00;5097596;28;20048;-68
2022/03/02 05:55:15;;;;;;;50.33;35.60;;;8.00;99.90;;;8.11;66.84;102306.41;5096962;28;20097;-68
2022/03/02 05:57:44;;;;;;;51.97;35.55;;;8.00;99.90;;;8.18;67.13;102316.28;5079039;28;20048;-69
2022/03/02 06:00:14;;;;;;;50.97;34.10;;;8.00;99.90;;;7.74;66.71;102241.22;5097153;28;20450;-68
2022/03/02 06:02:44;;;;;;;50.72;34.58;;;8.10;99.90;;;7.98;66.44;102297.28;5096748;28;20072;-68
2022/03/02 06:05:12;;;;;;;52.30;35.75;;;8.10;99.90;;;8.11;66.75;102322.22;5097156;28;20036;-68
2022/03/02 06:07:41;;;;;;;55.15;35.15;;;8.00;99.90;;;7.98;67.00;102317.44;5078841;28;20138;-70
2022/03/02 06:10:13;;;;;;;53.70;35.90;;;7.90;99.90;;;8.10;67.05;102321.34;5097316;28;20101;-68
2022/03/02 06:12:42;;;;;;;56.20;36.63;;;8.00;99.90;;;8.00;67.37;102323.66;5097041;28;20090;-69
2022/03/02 06:15:13;;;;;;;49.17;33.13;;;7.90;99.90;;;7.96;67.72;102322.69;5097010;28;20038;-68
2022/03/02 06:17:44;;;;;;;52.03;35.10;;;7.80;99.90;;;7.94;68.26;102328.75;5096720;28;20059;-67
2022/03/02 06:20:14;;;;;;;53.22;35.47;;;7.80;99.90;;;7.10;68.41;102187.53;5096764;28;20056;-68
2022/03/02 06:22:43;;;;;;;54.38;35.90;;;7.70;99.90;;;7.56;68.27;102281.94;5097051;28;20456;-69
2022/03/02 06:25:13;;;;;;;58.75;35.28;;;7.70;99.90;;;7.37;68.96;102312.06;5096728;28;20047;-68
2022/03/02 06:27:42;;;;;;;53.60;36.33;;;7.40;99.90;;;7.52;69.10;102317.81;5096653;28;20040;-69
2022/03/02 06:30:12;;;;;;;55.28;36.53;;;7.40;99.90;;;7.11;69.37;102289.28;5078461;28;20055;-68
2022/03/02 06:32:41;;;;;;;;;;;7.20;99.90;;;7.16;70.17;102324.53;5096988;28;20130;-68
2022/03/02 06:35:12;;;;;;;53.80;35.85;;;7.00;99.90;;;7.38;69.59;102327.00;5096309;28;20352;-67
2022/03/02 06:37:40;;;;;;;53.70;34.53;;;7.20;99.90;;;7.52;69.36;102323.06;5096109;28;20040;-68
2022/03/02 06:40:14;;;;;;;54.28;36.80;;;7.30;99.90;;;7.63;68.54;102334.81;5078154;28;20143;-69
2022/03/02 06:43:06;;;;;;;55.88;34.22;;;7.40;99.90;;;7.25;69.07;102328.38;5096215;28;20101;-67
2022/03/02 06:45:55;;;;;;;52.30;35.90;;;7.20;99.90;;;7.10;69.80;102308.56;5092065;28;20140;-68
2022/03/02 06:48:30;;;;;;;57.50;35.45;;;7.10;99.90;;;6.92;69.79;102289.53;5095668;28;20044;-70
2022/03/02 06:51:02;;;;;;;54.55;34.70;;;7.10;99.90;;;7.21;70.01;102336.09;5096104;28;20479;-68
2022/03/02 06:53:34;;;;;;;54.85;35.03;;;7.10;99.90;;;7.44;69.36;102335.09;5095946;28;20061;-68
2022/03/02 06:56:05;;;;;;;55.45;35.58;;;7.20;99.90;;;7.27;68.98;102302.09;5096152;28;20065;-67
2022/03/02 06:58:41;;;;;;;50.78;35.05;;;7.30;99.90;;;7.52;68.45;102340.59;5095729;28;20097;-68
2022/03/02 07:01:12;;;;;;;55.75;34.90;;;7.40;99.90;;;7.44;68.25;102335.09;5096020;28;20051;-68
2022/03/02 07:03:45;;;;;;;;;;;7.40;99.90;;;7.55;67.74;102338.94;5096277;28;20127;-68
2022/03/02 07:06:16;;;;;;;52.35;35.38;;;7.40;99.90;;;7.60;67.85;102349.63;5095974;28;19924;-68
2022/03/02 07:08:45;;;;;;;50.13;33.35;;;7.50;99.90;;;7.83;67.22;102338.97;5096188;28;20064;-68
2022/03/02 07:11:15;;;;;;;53.25;35.13;;;7.60;99.90;;;7.93;66.79;102353.31;5095782;28;20456;-68
2022/03/02 07:13:44;;;;;;;48.17;33.28;;;7.70;99.90;;;7.96;66.37;102348.13;5095577;28;20048;-68
2022/03/02 07:16:13;;;;;;;51.92;33.65;;;7.80;99.90;;;7.74;66.64;102349.19;5095563;28;20075;-68
2022/03/02 07:18:42;;;;;;;49.60;33.28;;;7.70;99.90;;;7.64;66.72;102348.91;5095713;28;20054;-68
2022/03/02 07:21:15;;;;;;;46.72;33.55;;;7.60;99.90;;;7.55;67.18;102332.81;5095753;28;20458;-67
2022/03/02 07:23:48;;;;;;;50.35;32.97;;;7.40;99.90;;;7.36;66.42;102326.06;5095555;28;20050;-68
2022/03/02 07:26:19;;;;;;;53.40;33.92;;;7.50;99.90;;;7.59;66.48;102342.59;5095901;28;20386;-68
2022/03/02 07:28:48;;;;;;;;;;;7.40;99.90;;;7.32;66.42;102345.22;5095992;28;20040;-68
2022/03/02 07:31:20;;;;;;;50.33;31.65;;;7.30;99.90;;;7.33;66.71;102331.25;5095114;28;20365;-68
2022/03/02 07:34:03;;;;;;;50.35;33.28;;;7.20;99.90;;;7.50;66.27;102343.19;5095218;28;20408;-68
2022/03/02 07:36:34;;;;;;;48.60;31.70;;;7.30;99.90;;;7.20;66.09;102340.47;5094918;28;20117;-68
2022/03/02 07:39:03;;;;;;;49.67;32.53;;;7.20;99.90;;;6.77;66.36;102258.38;5095510;28;20068;-68
2022/03/02 07:41:32;;;;;;;49.90;32.25;;;7.20;99.90;;;7.51;65.40;102339.69;5095073;28;20052;-68
2022/03/02 07:44:00;;;;;;;48.78;31.58;;;7.30;99.90;;;7.49;65.55;102346.66;5095168;28;20048;-68
2022/03/02 07:46:29;;;;;;;49.72;32.00;;;7.40;99.90;;;7.31;65.46;102351.34;5094694;28;20043;-68
2022/03/02 07:48:58;;;;;;;51.53;32.17;;;7.20;99.90;;;7.40;65.18;102343.75;5094877;28;20048;-69
2022/03/02 07:51:27;;;;;;;48.85;32.08;;;7.30;99.90;;;7.61;65.03;102348.78;5094702;28;20078;-69
2022/03/02 07:54:02;;;;;;;45.05;30.75;;;7.40;99.90;;;7.63;64.56;102342.72;5094786;28;20053;-70
2022/03/02 07:56:33;;;;;;;51.55;30.77;;;7.50;99.90;;;7.47;64.68;102339.56;5094701;28;20079;-69
2022/03/02 07:59:06;;;;;;;45.70;29.88;;;7.40;99.90;;;7.49;64.52;102338.75;5094806;28;20044;-67
2022/03/02 08:01:41;;;;;;;51.28;30.88;;;7.40;99.90;;;7.59;63.57;102346.09;5094109;28;20106;-69
2022/03/02 08:04:11;;;;;;;44.35;28.90;;;7.50;99.90;;;7.46;63.42;102336.03;5093832;28;20056;-68
2022/03/02 08:06:42;;;;;;;45.00;30.33;;;7.40;99.90;;;7.55;63.15;102338.94;5094494;28;20047;-68
2022/03/02 08:09:13;;;;;;;49.28;30.95;;;7.40;99.90;;;7.55;62.30;102343.34;5094338;28;20077;-69
2022/03/02 08:11:41;;;;;;;49.13;29.75;;;7.40;99.90;;;7.41;62.89;102340.28;5076155;28;20048;-69
2022/03/02 08:14:10;;;;;;;41.40;28.65;;;7.30;99.90;;;7.49;62.68;102340.53;5094537;28;20048;-69
2022/03/02 08:16:38;;;;;;;48.17;30.60;;;7.30;99.90;;;7.09;62.12;102219.94;5094374;28;20101;-68
2022/03/02 08:19:07;;;;;;;42.50;28.75;;;7.50;99.90;;;7.68;61.78;102346.41;5094433;28;20462;-69
2022/03/02 08:21:38;;;;;;;43.55;27.17;;;7.50;99.90;;;7.64;61.06;102333.09;5076103;28;20490;-69
2022/03/02 08:24:08;;;;;;;47.88;28.50;;;7.60;99.90;;;7.93;61.22;102334.88;5094382;28;20397;-69
2022/03/02 08:26:40;;;;;;;41.28;25.98;;;7.70;99.90;;;7.77;59.14;102338.78;5094260;28;20118;-69
2022/03/02 08:29:11;;;;;;;45.03;28.27;;;7.70;99.90;;;7.92;60.04;102344.50;5094148;28;20489;-69
2022/03/02 08:31:43;;;;;;;43.42;26.58;;;7.70;99.90;;;8.12;60.77;102343.38;5075896;28;20478;-69
2022/03/02 08:34:12;;;;;;;38.20;26.20;;;7.80;99.90;;;7.98;57.78;102315.72;5093655;28;20051;-69
2022/03/02 08:36:44;;;;;;;39.35;26.10;;;8.00;99.90;;;8.30;57.65;102345.66;5094001;28;20071;-69
2022/03/02 08:39:15;;;;;;;34.50;24.73;;;8.10;99.90;;;8.07;56.64;102305.44;5094090;28;20052;-66
2022/03/02 08:41:45;;;;;;;;;;;8.30;99.90;;;8.27;57.84;102356.09;5094484;28;20417;-66
2022/03/02 08:44:14;;;;;;;42.67;25.42;;;8.10;99.90;;;8.76;58.28;102355.72;5093751;28;19951;-66
2022/03/02 08:46:45;;;;;;;40.53;24.98;;;8.40;99.90;;;9.26;55.42;102352.66;5094269;28;20139;-69
2022/03/02 08:49:16;;;;;;;38.22;25.67;;;8.90;99.90;;;8.90;56.02;102325.34;5093890;28;20048;-69
2022/03/02 08:51:44;;;;;;;37.42;25.90;;;8.90;99.90;;;9.39;55.71;102333.59;5093661;28;20439;-69
2022/03/02 08:54:18;;;;;;;39.90;25.60;;;9.10;99.90;;;9.27;54.31;102335.94;5093635;28;20078;-68
2022/03/02 08:56:48;;;;;;;39.03;25.08;;;9.10;99.90;;;9.63;53.51;102338.56;5093618;28;20119;-71
2022/03/02 08:59:18;;;;;;;;;;;9.40;99.90;;;9.30;52.43;102341.31;5094012;28;20089;-72
2022/03/02 09:01:52;;;;;;;38.53;24.63;;;9.20;99.90;;;8.85;54.28;102338.41;5093477;28;19919;-71
2022/03/02 09:04:23;;;;;;;36.05;25.73;;;8.70;99.90;;;9.43;55.83;102339.84;5093841;28;20052;-70
2022/03/02 09:06:53;;;;;;;;;;;9.00;99.90;;;9.68;53.25;102337.81;5094345;28;20048;-67
2022/03/02 09:09:22;;;;;;;33.55;23.42;;;9.40;99.90;;;9.84;51.68;102336.41;5093305;28;20281;-67
2022/03/02 09:11:52;;;;;;;31.70;24.20;;;9.60;99.90;;;9.87;51.22;102333.84;5093323;28;20071;-68
2022/03/02 09:14:21;;;;;;;35.03;23.63;;;9.60;99.90;;;10.02;50.30;102331.53;5075549;28;20048;-67
2022/03/02 09:16:50;;;;;;;34.33;23.90;;;9.80;99.90;;;10.69;49.23;102342.63;5093460;28;20047;-69
2022/03/02 09:19:19;;;;;;;36.78;23.40;;;10.30;99.90;;;9.71;50.90;102337.00;5093114;28;20493;-68
2022/03/02 09:21:49;;;;;;;34.72;23.15;;;9.80;99.90;;;9.98;49.00;102324.38;5093161;28;20040;-65
2022/03/02 09:24:19;;;;;;;33.20;22.77;;;9.80;99.90;;;9.47;48.83;102331.13;5093414;28;20055;-68
2022/03/02 09:26:47;;;;;;;36.65;21.80;;;9.40;99.90;;;9.72;48.99;102320.25;5093657;28;20404;-66
2022/03/02 09:29:18;;;;;;;34.45;22.20;;;9.50;99.90;;;9.34;48.57;102329.97;5093368;28;20069;-71
2022/03/02 09:31:50;;;;;;;31.02;21.73;;;9.30;99.90;;;9.66;48.54;102331.59;5075397;28;20048;-71
2022/03/02 09:34:27;;;;;;;34.38;21.20;;;9.40;99.90;;;9.84;48.52;102337.31;5093220;28;20089;-72
2022/03/02 09:36:57;;;;;;;31.65;21.55;;;9.60;99.90;;;9.53;47.35;102326.91;5093364;28;20040;-72
2022/03/02 09:39:26;;;;;;;31.15;21.25;;;9.50;99.90;;;9.61;49.91;102320.03;5093383;28;20063;-69
2022/03/02 09:42:05;;;;;;;31.15;21.42;;;9.40;99.90;;;10.13;46.74;102310.63;5075253;28;20051;-70
2022/03/02 09:44:42;;;;;;;31.02;21.25;;;9.80;99.90;;;10.01;45.92;102300.63;5093314;28;20396;-70
2022/03/02 09:47:19;;;;;;;32.20;22.15;;;10.00;99.90;;;10.56;46.17;102308.84;5093242;28;20066;-70
2022/03/02 09:49:50;;;;;;;32.03;22.02;;;10.20;99.90;;;10.64;45.54;102323.13;5092902;28;20041;-70
2022/03/02 09:52:21;;;;;;;30.48;21.35;;;10.40;99.90;;;10.84;45.46;102321.72;5092872;28;20567;-71
2022/03/02 09:54:55;;;;;;;33.78;22.38;;;10.70;99.90;;;10.70;46.73;102320.56;5093291;28;20040;-71
2022/03/02 09:57:24;;;;;;;32.40;23.05;;;10.50;99.90;;;11.17;47.78;102331.97;5093212;28;20090;-72
2022/03/02 09:59:56;;;;;;;30.88;22.60;;;10.90;99.90;;;10.87;46.80;102327.06;5092825;28;20072;-71
2022/03/02 10:02:36;;;;;;;33.83;22.35;;;10.70;99.90;;;10.52;46.52;102320.25;5092973;28;20044;-69
2022/03/02 10:05:09;;;;;;;35.60;23.42;;;10.50;99.90;;;10.51;46.66;102285.81;5093114;28;20048;-69
2022/03/02 10:07:44;;;;;;;35.08;21.02;;;10.40;99.90;;;10.64;46.66;102316.94;5075106;28;20048;-68
2022/03/02 10:10:18;;;;;;;32.85;22.52;;;10.40;99.90;;;11.04;46.11;102326.47;5093099;28;20044;-67
2022/03/02 10:12:46;;;;;;;33.58;22.48;;;10.70;99.90;;;10.88;46.31;102289.13;5092787;28;20040;-67
2022/03/02 10:15:16;;;;;;;31.35;21.75;;;10.80;99.90;;;10.61;47.30;102306.28;5092618;28;20127;-70
2022/03/02 10:17:48;;;;;;;32.88;22.20;;;10.60;99.90;;;11.44;46.59;102307.72;5092808;28;20378;-68
2022/03/02 10:20:19;;;;;;;32.42;22.95;;;11.00;99.90;;;11.22;46.27;102301.19;5074823;28;20047;-68
2022/03/02 10:23:37;;;;;;;34.42;22.50;;;11.10;99.90;;;11.50;43.95;102313.97;5092654;28;20044;-67
2022/03/02 10:26:18;;;;;;;31.17;21.58;;;11.50;99.90;;;11.68;44.38;102306.34;5078525;28;20051;-67